EGNU weather

Full Sutton Airfield
Full Sutton, England, United Kingdom

Public forecast

Using degrees Celsius for public forecast. Weather courtesy of forecast.io.

Closest aviation weather report (METAR) to Full Sutton Airfield

Closest report is RAF Linton-On-Ouse, 14.3 nm (26.5 km) WNW. Retrieved 2019/10/13 21:50 UTC (10 minutes ago):

EGXU 132150Z AUTO 09004KT 9999 // BKN023/// 11/08 Q1006

Closest aviation forecast (TAF) to Full Sutton Airfield

Forecast is more than 12 hours old.

Closest forecast is RAF Linton-On-Ouse, 14.3 nm (26.5 km) WNW. Retrieved 2011/03/08 18:03 UTC (9 years ago):

TAF TAF EGXU 081630Z 0818/0921 26015G25KT 9999 BKN030 BECMG 0818/0821 BKN020